createdAt,value
2019-04-04T00:00:51.174Z,2.10
2019-04-04T00:03:22.873Z,2.40
2019-04-04T00:05:55.125Z,2.63
2019-04-04T00:08:30.945Z,2.23
2019-04-04T00:11:01.816Z,2.20
2019-04-04T00:13:33.959Z,2.00
2019-04-04T00:16:05.932Z,2.10
2019-04-04T00:18:37.753Z,2.17
2019-04-04T00:21:10.119Z,2.10
2019-04-04T00:23:41.830Z,2.20
2019-04-04T00:26:13.722Z,2.20
2019-04-04T00:28:46.078Z,2.10
2019-04-04T00:31:19.596Z,2.07
2019-04-04T00:33:51.675Z,1.90
2019-04-04T00:36:23.753Z,2.27
2019-04-04T00:38:55.809Z,2.17
2019-04-04T00:41:27.570Z,2.20
2019-04-04T00:43:59.282Z,2.20
2019-04-04T00:46:31.504Z,2.50
2019-04-04T00:49:04.936Z,2.27
2019-04-04T00:51:38.817Z,2.27
2019-04-04T00:54:12.102Z,2.17
2019-04-04T00:56:43.945Z,1.93
2019-04-04T00:59:16.878Z,2.07
2019-04-04T01:01:49.267Z,2.60
2019-04-04T01:04:21.078Z,2.43
2019-04-04T01:06:52.830Z,2.20
2019-04-04T01:09:24.601Z,2.20
2019-04-04T01:11:56.713Z,2.13
2019-04-04T01:14:29.190Z,2.13
2019-04-04T01:17:02.068Z,2.07
2019-04-04T01:19:35.337Z,2.30
2019-04-04T01:22:07.105Z,2.10
2019-04-04T01:24:39.131Z,1.80
2019-04-04T01:27:10.879Z,2.00
2019-04-04T01:29:42.656Z,1.80
2019-04-04T01:32:15.144Z,2.13
2019-04-04T01:34:48.013Z,2.20
2019-04-04T01:37:19.715Z,2.10
2019-04-04T01:39:51.565Z,2.30
2019-04-04T01:42:23.436Z,1.93
2019-04-04T01:47:25.427Z,1.82
2019-04-04T01:49:57.288Z,1.53
2019-04-04T01:52:29.126Z,1.73
2019-04-04T01:55:02.958Z,1.90
2019-04-04T01:57:34.383Z,1.90
2019-04-04T02:00:07.958Z,2.20
2019-04-04T02:02:40.013Z,2.00
2019-04-04T02:05:11.783Z,2.10
2019-04-04T02:07:43.885Z,1.80
2019-04-04T02:10:17.151Z,1.83
2019-04-04T02:12:48.954Z,1.83
2019-04-04T02:15:20.661Z,1.80
2019-04-04T02:17:52.992Z,2.00
2019-04-04T02:20:26.987Z,1.80
2019-04-04T02:23:01.187Z,1.73
2019-04-04T02:25:35.965Z,1.80
2019-04-04T02:28:08.883Z,1.87
2019-04-04T02:30:49.937Z,1.50
2019-04-04T02:33:21.780Z,1.90
2019-04-04T02:35:53.473Z,1.80
2019-04-04T02:38:28.004Z,2.40
2019-04-04T02:40:59.070Z,1.90
2019-04-04T02:43:31.273Z,1.67
2019-04-04T02:46:03.306Z,1.70
2019-04-04T02:48:35.167Z,1.50
2019-04-04T02:51:08.094Z,1.70
2019-04-04T02:53:40.387Z,2.00
2019-04-04T02:56:12.099Z,2.07
2019-04-04T02:58:46.473Z,1.87
2019-04-04T03:01:17.599Z,1.87
2019-04-04T03:03:49.644Z,1.33
2019-04-04T03:06:24.516Z,1.97
2019-04-04T03:08:55.046Z,2.07
2019-04-04T03:11:26.978Z,1.90
2019-04-04T03:14:03.301Z,2.37
2019-04-04T03:16:32.363Z,1.70
2019-04-04T03:19:04.474Z,2.20
2019-04-04T03:21:36.571Z,1.67
2019-04-04T03:24:08.387Z,2.13
2019-04-04T03:26:40.343Z,2.07
2019-04-04T03:29:12.111Z,1.97
2019-04-04T03:31:44.601Z,1.90
2019-04-04T03:34:16.540Z,2.10
2019-04-04T03:36:48.207Z,1.97
2019-04-04T03:39:20.549Z,2.07
2019-04-04T03:41:52.700Z,1.80
2019-04-04T03:44:24.484Z,1.90
2019-04-04T03:46:56.587Z,2.07
2019-04-04T03:49:28.674Z,1.80
2019-04-04T03:52:00.334Z,1.50
2019-04-04T03:54:32.156Z,1.90
2019-04-04T03:57:03.758Z,1.67
2019-04-04T03:59:36.007Z,1.60
2019-04-04T04:02:07.734Z,1.80
2019-04-04T04:04:39.974Z,1.70
2019-04-04T04:07:14.225Z,1.70
2019-04-04T04:09:45.767Z,1.60
2019-04-04T04:12:17.524Z,1.77
2019-04-04T04:14:53.783Z,1.50
2019-04-04T04:17:22.579Z,1.57
2019-04-04T04:19:54.382Z,1.53
2019-04-04T04:22:26.032Z,1.80
2019-04-04T04:25:02.179Z,1.77
2019-04-04T04:27:31.427Z,1.50
2019-04-04T04:30:07.271Z,1.63
2019-04-04T04:32:37.718Z,1.30
2019-04-04T04:35:10.794Z,1.60
2019-04-04T04:37:42.956Z,1.60
2019-04-04T04:40:15.419Z,1.80
2019-04-04T04:42:47.611Z,1.53
2019-04-04T04:45:19.285Z,1.57
2019-04-04T04:47:51.021Z,1.50
2019-04-04T04:50:22.711Z,1.60
2019-04-04T04:52:54.604Z,1.70
2019-04-04T04:55:27.345Z,1.57
2019-04-04T04:57:59.885Z,1.57
2019-04-04T05:00:32.071Z,1.60
2019-04-04T05:03:03.792Z,1.40
2019-04-04T05:05:35.786Z,1.37
2019-04-04T05:08:10.118Z,1.70
2019-04-04T05:10:41.764Z,1.83
2019-04-04T05:13:13.569Z,2.07
2019-04-04T05:15:46.871Z,1.90
2019-04-04T05:18:18.563Z,2.37
2019-04-04T05:20:50.314Z,2.33
2019-04-04T05:23:22.131Z,2.50
2019-04-04T05:25:54.481Z,1.90
2019-04-04T05:28:26.505Z,1.90
2019-04-04T05:30:58.254Z,2.03
2019-04-04T05:33:31.547Z,2.30
2019-04-04T05:36:05.247Z,2.00
2019-04-04T05:38:37.348Z,2.20
2019-04-04T05:41:09.341Z,2.30
2019-04-04T05:43:41.158Z,3.10
2019-04-04T05:46:12.958Z,2.77
2019-04-04T05:48:54.002Z,3.13
2019-04-04T05:51:25.948Z,2.40
2019-04-04T05:53:57.981Z,2.73
2019-04-04T05:56:34.969Z,3.37
2019-04-04T05:59:06.695Z,2.60
2019-04-04T06:01:38.352Z,2.50
2019-04-04T06:04:10.240Z,2.47
2019-04-04T06:06:42.496Z,2.23
2019-04-04T06:09:14.868Z,1.97
2019-04-04T06:11:48.640Z,2.13
2019-04-04T06:14:29.926Z,2.63
2019-04-04T06:16:55.247Z,2.30
2019-04-04T06:19:30.122Z,2.57
2019-04-04T06:22:02.509Z,2.23
2019-04-04T06:24:34.058Z,1.83
2019-04-04T06:27:07.105Z,2.10
2019-04-04T06:29:40.111Z,2.47
2019-04-04T06:32:11.792Z,2.33
2019-04-04T06:34:44.319Z,2.50
2019-04-04T06:37:18.037Z,1.97
2019-04-04T06:39:50.521Z,1.97
2019-04-04T06:42:24.282Z,2.20
2019-04-04T06:44:56.169Z,1.73
2019-04-04T06:47:27.917Z,2.07
2019-04-04T06:49:59.672Z,2.20
2019-04-04T06:52:31.358Z,2.10
2019-04-04T06:55:03.182Z,2.03
2019-04-04T06:57:36.551Z,2.10
2019-04-04T07:00:15.371Z,1.70
2019-04-04T07:02:47.351Z,2.37
2019-04-04T07:05:19.725Z,2.23
2019-04-04T07:07:51.448Z,2.20
2019-04-04T07:10:23.273Z,2.90
2019-04-04T07:13:06.239Z,2.97
2019-04-04T07:15:28.709Z,2.30
2019-04-04T07:18:03.311Z,3.27
2019-04-04T07:20:35.504Z,2.20
2019-04-04T07:23:07.176Z,3.03
2019-04-04T07:25:39.792Z,2.93
2019-04-04T07:28:12.783Z,3.60
2019-04-04T07:30:44.929Z,3.20
2019-04-04T07:33:16.411Z,3.90
2019-04-04T07:35:48.914Z,4.60
2019-04-04T07:38:21.503Z,4.37
2019-04-04T07:40:53.186Z,3.90
2019-04-04T07:43:24.929Z,5.10
2019-04-04T07:46:15.339Z,5.63
2019-04-04T07:48:35.492Z,4.67
2019-04-04T07:51:07.376Z,5.00
2019-04-04T07:53:39.346Z,5.10
2019-04-04T07:56:12.157Z,6.20
2019-04-04T07:58:47.953Z,5.87
2019-04-04T08:01:19.631Z,6.40
2019-04-04T08:03:51.324Z,6.47
2019-04-04T08:06:23.527Z,6.53
2019-04-04T08:08:55.613Z,6.20
2019-04-04T08:11:27.326Z,7.23
2019-04-04T08:13:59.046Z,7.07
2019-04-04T08:16:31.122Z,7.47
2019-04-04T08:19:02.844Z,7.43
2019-04-04T08:21:34.599Z,8.07
2019-04-04T08:24:06.391Z,7.40
2019-04-04T08:26:38.202Z,7.90
2019-04-04T08:29:10.154Z,7.50
2019-04-04T08:31:42.075Z,7.40
2019-04-04T08:34:14.033Z,7.20
2019-04-04T08:36:45.886Z,7.10
2019-04-04T08:39:17.547Z,6.57
2019-04-04T08:41:52.230Z,7.10
2019-04-04T08:44:22.907Z,6.43
2019-04-04T08:46:55.709Z,6.77
2019-04-04T08:49:27.973Z,7.03
2019-04-04T08:52:00.351Z,6.63
2019-04-04T08:54:32.368Z,6.43
2019-04-04T08:57:04.529Z,6.33
2019-04-04T08:59:40.887Z,6.63
2019-04-04T09:02:26.813Z,6.17
2019-04-04T09:05:11.201Z,6.63
2019-04-04T09:07:32.998Z,6.90
2019-04-04T09:10:06.613Z,6.07
2019-04-04T09:12:38.302Z,6.20
2019-04-04T09:15:09.995Z,6.23
2019-04-04T09:17:42.259Z,6.00
2019-04-04T09:20:14.255Z,5.27
2019-04-04T09:22:46.004Z,5.80
2019-04-04T09:25:17.647Z,5.70
2019-04-04T09:27:49.570Z,5.90
2019-04-04T09:30:21.887Z,5.20
2019-04-04T09:32:53.644Z,5.80
2019-04-04T09:35:25.380Z,5.57
2019-04-04T09:37:57.585Z,6.37
2019-04-04T09:40:29.540Z,6.10
2019-04-04T09:43:01.269Z,6.07
2019-04-04T09:45:32.983Z,6.20
2019-04-04T09:48:05.083Z,5.63
2019-04-04T09:50:37.175Z,6.30
2019-04-04T09:53:09.003Z,6.30
2019-04-04T09:55:41.302Z,6.17
2019-04-04T09:58:13.345Z,6.50
2019-04-04T10:00:45.677Z,6.60
2019-04-04T10:03:17.526Z,6.20
2019-04-04T10:05:49.315Z,6.50
2019-04-04T10:08:21.090Z,6.83
2019-04-04T10:10:53.493Z,6.60
2019-04-04T10:13:25.150Z,6.23
2019-04-04T10:15:56.936Z,6.60
2019-04-04T10:18:28.577Z,5.90
2019-04-04T10:21:11.129Z,6.70
2019-04-04T10:23:36.779Z,6.10
2019-04-04T10:26:11.637Z,6.63
2019-04-04T10:28:43.889Z,6.27
2019-04-04T10:31:15.824Z,6.33
2019-04-04T10:33:47.407Z,6.17
2019-04-04T10:36:19.346Z,5.90
2019-04-04T10:38:51.470Z,5.70
2019-04-04T10:41:23.450Z,5.50
2019-04-04T10:43:55.212Z,5.43
2019-04-04T10:46:27.538Z,5.93
2019-04-04T10:49:04.875Z,6.20
2019-04-04T10:51:36.944Z,5.53
2019-04-04T10:54:09.287Z,5.73
2019-04-04T10:56:41.805Z,5.53
2019-04-04T10:59:13.967Z,5.80
2019-04-04T11:01:45.852Z,5.30
2019-04-04T11:04:17.898Z,5.30
2019-04-04T11:06:49.922Z,5.37
2019-04-04T11:09:22.206Z,5.30
2019-04-04T11:11:53.905Z,5.63
2019-04-04T11:14:25.752Z,4.17
2019-04-04T11:16:57.578Z,3.93
2019-04-04T11:19:32.332Z,3.73
2019-04-04T11:22:06.565Z,4.00
2019-04-04T11:24:38.360Z,3.17
2019-04-04T11:27:10.243Z,3.30
2019-04-04T11:29:42.331Z,3.00
2019-04-04T11:32:18.378Z,2.90
2019-04-04T11:34:53.645Z,3.10
2019-04-04T11:37:25.439Z,3.13
2019-04-04T11:39:57.260Z,3.50
2019-04-04T11:42:40.947Z,2.87
2019-04-04T11:45:13.263Z,2.90
2019-04-04T11:47:45.109Z,2.93
2019-04-04T11:50:17.436Z,2.40
2019-04-04T11:52:49.679Z,2.63
2019-04-04T11:55:21.469Z,3.10
2019-04-04T11:57:54.479Z,2.63
2019-04-04T12:00:29.617Z,2.30
2019-04-04T12:03:01.780Z,2.53
2019-04-04T12:05:34.481Z,2.10
2019-04-04T12:08:07.598Z,2.00
2019-04-04T12:10:41.194Z,1.80
2019-04-04T12:13:13.170Z,2.10
2019-04-04T12:15:50.362Z,2.00
2019-04-04T12:18:22.211Z,2.07
2019-04-04T12:20:54.214Z,1.87
2019-04-04T12:23:26.199Z,2.13
2019-04-04T12:25:57.972Z,1.80
2019-04-04T12:28:30.343Z,1.90
2019-04-04T12:31:02.211Z,1.90
2019-04-04T12:33:36.401Z,2.07
2019-04-04T12:36:08.691Z,2.00
2019-04-04T12:38:40.753Z,1.80
2019-04-04T12:41:12.796Z,2.00
2019-04-04T12:43:44.788Z,1.60
2019-04-04T12:46:17.524Z,2.00
2019-04-04T12:48:49.445Z,1.60
2019-04-04T12:51:21.504Z,1.77
2019-04-04T12:53:58.271Z,1.60
2019-04-04T12:56:30.483Z,1.73
2019-04-04T12:59:02.452Z,1.67
2019-04-04T13:01:34.264Z,1.40
2019-04-04T13:04:09.765Z,1.47
2019-04-04T13:06:51.874Z,1.30
2019-04-04T13:09:24.384Z,1.50
2019-04-04T13:11:56.752Z,1.33
2019-04-04T13:14:28.923Z,1.57
2019-04-04T13:17:00.963Z,1.43
2019-04-04T13:19:32.663Z,1.20
2019-04-04T13:22:04.418Z,1.30
2019-04-04T13:24:36.164Z,1.30
2019-04-04T13:27:08.190Z,1.30
2019-04-04T13:29:45.157Z,1.20
2019-04-04T13:32:17.437Z,1.27
2019-04-04T13:34:58.673Z,1.10
2019-04-04T13:37:22.799Z,1.00
2019-04-04T13:39:54.653Z,1.20
2019-04-04T13:42:28.142Z,1.17
2019-04-04T13:45:00.027Z,1.40
2019-04-04T13:47:32.435Z,0.90
2019-04-04T13:50:06.585Z,1.20
2019-04-04T13:52:38.911Z,1.10
2019-04-04T13:55:10.769Z,0.90
2019-04-04T13:57:47.290Z,1.20
2019-04-04T14:00:17.914Z,1.23
2019-04-04T14:02:49.734Z,0.70
2019-04-04T14:05:21.396Z,1.10
2019-04-04T14:07:53.865Z,1.00
2019-04-04T14:10:25.992Z,1.20
2019-04-04T14:12:59.146Z,1.20
2019-04-04T14:15:31.266Z,0.90
2019-04-04T14:18:07.708Z,0.77
2019-04-04T14:20:38.876Z,0.93
2019-04-04T14:23:10.743Z,1.00
2019-04-04T14:25:42.667Z,0.90
2019-04-04T14:28:16.097Z,1.00
2019-04-04T14:30:50.791Z,0.90
2019-04-04T14:33:24.168Z,1.00
2019-04-04T14:36:00.909Z,0.77
2019-04-04T14:38:35.995Z,0.80
2019-04-04T14:41:11.605Z,0.80
2019-04-04T14:43:41.702Z,0.90
2019-04-04T14:46:15.136Z,0.60
2019-04-04T14:48:46.982Z,0.80
2019-04-04T14:51:18.819Z,0.70
2019-04-04T14:53:50.857Z,0.80
2019-04-04T14:56:22.712Z,0.63
2019-04-04T14:58:57.781Z,1.00
2019-04-04T15:01:29.705Z,0.70
2019-04-04T15:04:01.994Z,0.73
2019-04-04T15:06:35.409Z,0.80
2019-04-04T15:09:09.793Z,0.80
2019-04-04T15:11:41.877Z,0.87
2019-04-04T15:14:15.184Z,0.70
2019-04-04T15:16:47.026Z,0.80
2019-04-04T15:19:19.053Z,0.83
2019-04-04T15:21:59.194Z,0.67
2019-04-04T15:24:33.090Z,1.00
2019-04-04T15:27:05.315Z,0.60
2019-04-04T15:29:36.964Z,0.70
2019-04-04T15:32:26.237Z,0.80
2019-04-04T15:34:57.844Z,0.77
2019-04-04T15:37:29.901Z,0.60
2019-04-04T15:40:01.638Z,0.80
2019-04-04T15:42:33.722Z,0.70
2019-04-04T15:45:07.686Z,0.87
2019-04-04T15:47:39.316Z,0.67
2019-04-04T15:50:11.167Z,0.80
2019-04-04T15:52:44.582Z,1.00
2019-04-04T15:55:16.481Z,0.63
2019-04-04T15:57:48.283Z,0.63
2019-04-04T16:00:20.299Z,1.00
2019-04-04T16:02:52.376Z,0.90
2019-04-04T16:05:24.792Z,0.80
2019-04-04T16:07:56.610Z,0.93
2019-04-04T16:10:48.219Z,0.80
2019-04-04T16:13:17.612Z,0.90
2019-04-04T16:15:50.639Z,0.97
2019-04-04T16:18:22.601Z,0.80
2019-04-04T16:21:12.170Z,0.90
2019-04-04T16:23:43.829Z,0.93
2019-04-04T16:26:16.005Z,1.07
2019-04-04T16:28:47.708Z,1.57
2019-04-04T16:31:19.551Z,1.10
2019-04-04T16:33:51.854Z,1.50
2019-04-04T16:36:23.645Z,1.00
2019-04-04T16:38:55.357Z,1.20
2019-04-04T16:41:27.220Z,1.30
2019-04-04T16:43:59.846Z,1.27
2019-04-04T16:46:31.602Z,1.60
2019-04-04T16:49:03.340Z,1.30
2019-04-04T16:51:35.371Z,1.47
2019-04-04T16:54:07.097Z,1.40
2019-04-04T16:56:39.257Z,1.30
2019-04-04T16:59:10.946Z,1.10
2019-04-04T17:01:43.077Z,1.30
2019-04-04T17:04:14.789Z,1.23
2019-04-04T17:06:47.135Z,1.30
2019-04-04T17:09:19.166Z,1.30
2019-04-04T17:11:51.127Z,1.47
2019-04-04T17:14:23.067Z,1.57
2019-04-04T17:16:54.883Z,1.30
2019-04-04T17:19:26.651Z,1.40
2019-04-04T17:21:58.380Z,1.40
2019-04-04T17:24:29.994Z,1.13
2019-04-04T17:27:02.382Z,1.40
2019-04-04T17:29:38.830Z,1.47
2019-04-04T17:32:12.158Z,1.40
2019-04-04T17:34:44.265Z,2.03
2019-04-04T17:37:16.612Z,1.83
2019-04-04T17:39:50.237Z,1.90
2019-04-04T17:42:30.260Z,1.87
2019-04-04T17:44:55.897Z,1.83
2019-04-04T17:47:30.510Z,1.87
2019-04-04T17:50:02.045Z,1.80
2019-04-04T17:52:34.272Z,1.90
2019-04-04T17:55:07.482Z,1.80
2019-04-04T17:57:39.752Z,1.90
2019-04-04T18:00:12.020Z,1.90
2019-04-04T18:02:44.067Z,1.80
2019-04-04T18:05:15.810Z,2.03
2019-04-04T18:07:47.898Z,2.10
2019-04-04T18:10:21.103Z,2.10
2019-04-04T18:12:52.819Z,1.70
2019-04-04T18:15:27.733Z,1.73
2019-04-04T18:17:59.422Z,2.10
2019-04-04T18:20:36.317Z,1.87
2019-04-04T18:23:08.208Z,1.97
2019-04-04T18:25:40.068Z,2.23
2019-04-04T18:28:13.376Z,2.53
2019-04-04T18:31:06.591Z,2.77
2019-04-04T18:36:10.928Z,3.55
2019-04-04T18:38:44.683Z,4.47
2019-04-04T18:41:25.973Z,4.87
2019-04-04T18:43:59.830Z,5.67
2019-04-04T18:46:39.634Z,7.07
2019-04-04T18:49:11.142Z,7.03
2019-04-04T18:51:43.113Z,8.13
2019-04-04T18:54:15.346Z,8.63
2019-04-04T18:56:47.139Z,7.87
2019-04-04T18:59:18.880Z,8.00
2019-04-04T19:01:50.659Z,7.53
2019-04-04T19:04:22.374Z,7.43
2019-04-04T19:06:54.591Z,6.70
2019-04-04T19:09:29.296Z,6.97
2019-04-04T19:12:04.932Z,6.80
2019-04-04T19:14:40.437Z,6.50
2019-04-04T19:17:13.871Z,5.67
2019-04-04T19:19:45.975Z,5.73
2019-04-04T19:22:17.761Z,5.90
2019-04-04T19:24:49.606Z,5.03
2019-04-04T19:27:21.432Z,4.97
2019-04-04T19:29:53.229Z,4.93
2019-04-04T19:32:28.107Z,5.03
2019-04-04T19:35:08.727Z,5.03
2019-04-04T19:37:40.493Z,4.90
2019-04-04T19:43:26.747Z,5.73
2019-04-04T19:46:36.450Z,4.80
2019-04-04T19:48:41.307Z,4.60
2019-04-04T19:51:13.305Z,5.13
2019-04-04T19:53:45.219Z,5.33
2019-04-04T19:56:17.051Z,5.07
2019-04-04T19:58:51.063Z,4.60
2019-04-04T20:01:25.587Z,5.00
2019-04-04T20:03:56.663Z,4.90
2019-04-04T20:06:30.652Z,4.20
2019-04-04T20:09:02.920Z,4.10
2019-04-04T20:11:38.873Z,5.00
2019-04-04T20:14:08.360Z,5.00
2019-04-04T20:16:40.075Z,4.27
2019-04-04T20:19:12.498Z,4.50
2019-04-04T20:21:44.133Z,5.23
2019-04-04T20:24:16.087Z,5.17
2019-04-04T20:26:47.974Z,4.20
2019-04-04T20:29:19.772Z,4.10
2019-04-04T20:31:51.502Z,4.27
2019-04-04T20:34:23.344Z,3.90
2019-04-04T20:36:54.946Z,3.67
2019-04-04T20:39:28.667Z,4.13
2019-04-04T20:42:00.805Z,3.70
2019-04-04T20:44:32.549Z,3.70
2019-04-04T20:47:04.211Z,3.80
2019-04-04T20:49:36.077Z,3.77
2019-04-04T20:52:07.779Z,3.80
2019-04-04T20:54:39.659Z,3.60
2019-04-04T20:57:11.510Z,3.60
2019-04-04T20:59:44.648Z,3.40
2019-04-04T21:02:16.392Z,3.60
2019-04-04T21:04:48.054Z,3.73
2019-04-04T21:07:21.474Z,3.77
2019-04-04T21:09:53.143Z,3.23
2019-04-04T21:12:26.478Z,3.60
2019-04-04T21:14:58.288Z,3.40
2019-04-04T21:17:33.535Z,3.00
2019-04-04T21:20:06.962Z,3.20
2019-04-04T21:22:39.018Z,3.10
2019-04-04T21:25:11.528Z,3.10
2019-04-04T21:27:43.648Z,3.20
2019-04-04T21:30:15.515Z,2.90
2019-04-04T21:32:47.273Z,3.00
2019-04-04T21:35:19.054Z,3.40
2019-04-04T21:37:51.160Z,3.00
2019-04-04T21:40:22.916Z,3.13
2019-04-04T21:42:54.658Z,3.43
2019-04-04T21:45:26.394Z,3.50
2019-04-04T21:47:58.113Z,3.00
2019-04-04T21:50:29.841Z,3.23
2019-04-04T21:53:02.006Z,3.37
2019-04-04T21:55:33.677Z,3.10
2019-04-04T21:58:05.579Z,2.97
2019-04-04T22:00:39.181Z,3.07
2019-04-04T22:03:11.279Z,2.90
2019-04-04T22:05:42.925Z,2.90
2019-04-04T22:08:18.883Z,3.17
2019-04-04T22:10:50.921Z,2.80
2019-04-04T22:13:22.713Z,2.83
2019-04-04T22:15:54.549Z,3.13
2019-04-04T22:18:30.463Z,2.87
2019-04-04T22:21:02.427Z,3.20
2019-04-04T22:23:35.105Z,2.73
2019-04-04T22:26:06.821Z,3.03
2019-04-04T22:28:38.946Z,2.90
2019-04-04T22:31:11.020Z,3.07
2019-04-04T22:33:42.855Z,2.67
2019-04-04T22:36:14.743Z,2.50
2019-04-04T22:38:46.608Z,2.90
2019-04-04T22:41:18.893Z,2.80
2019-04-04T22:44:02.961Z,2.63
2019-04-04T22:46:24.582Z,2.70
2019-04-04T22:48:56.630Z,2.97
2019-04-04T22:51:28.980Z,2.90
2019-04-04T22:54:00.861Z,2.70
2019-04-04T22:56:32.444Z,2.80
2019-04-04T22:59:04.342Z,2.70
2019-04-04T23:01:36.145Z,2.83
2019-04-04T23:04:08.132Z,2.60
2019-04-04T23:06:40.246Z,2.67
2019-04-04T23:09:12.360Z,2.50
2019-04-04T23:11:44.256Z,2.60
2019-04-04T23:14:15.922Z,2.63
2019-04-04T23:16:47.826Z,2.60
2019-04-04T23:19:19.567Z,2.60
2019-04-04T23:21:51.311Z,2.40
2019-04-04T23:24:23.231Z,2.40
2019-04-04T23:26:55.278Z,2.30
2019-04-04T23:29:26.972Z,2.90
2019-04-04T23:31:58.944Z,2.43
2019-04-04T23:34:30.738Z,2.40
2019-04-04T23:37:02.493Z,2.30
2019-04-04T23:39:34.773Z,2.47
2019-04-04T23:42:06.614Z,2.43
2019-04-04T23:44:38.464Z,2.20
2019-04-04T23:47:10.491Z,2.70
2019-04-04T23:49:42.129Z,2.50
2019-04-04T23:52:14.248Z,2.23
2019-04-04T23:54:46.786Z,2.20
2019-04-04T23:57:19.063Z,2.53
2019-04-04T23:59:50.811Z,2.10
